sensor_id;sensor_type;location;lat;lon;timestamp;temperature;humidity
19781;DHT22;10050;55.492;13.506;2023-08-08T00:02:13;14.10;99.90
19781;DHT22;10050;55.492;13.506;2023-08-08T00:04:39;14.10;99.90
19781;DHT22;10050;55.492;13.506;2023-08-08T00:07:05;14.10;99.90
19781;DHT22;10050;55.492;13.506;2023-08-08T00:09:32;14.20;99.90
19781;DHT22;10050;55.492;13.506;2023-08-08T00:11:58;14.10;99.90
19781;DHT22;10050;55.492;13.506;2023-08-08T00:14:25;14.10;99.90
19781;DHT22;10050;55.492;13.506;2023-08-08T00:16:51;14.10;99.90
19781;DHT22;10050;55.492;13.506;2023-08-08T00:19:25;14.10;99.90
19781;DHT22;10050;55.492;13.506;2023-08-08T00:21:50;14.10;99.90
19781;DHT22;10050;55.492;13.506;2023-08-08T00:24:16;14.10;99.90
19781;DHT22;10050;55.492;13.506;2023-08-08T00:26:42;14.10;99.90
19781;DHT22;10050;55.492;13.506;2023-08-08T00:29:07;14.10;99.90
19781;DHT22;10050;55.492;13.506;2023-08-08T00:31:35;14.10;99.90
19781;DHT22;10050;55.492;13.506;2023-08-08T00:34:01;14.10;99.90
19781;DHT22;10050;55.492;13.506;2023-08-08T00:36:33;14.10;99.90
19781;DHT22;10050;55.492;13.506;2023-08-08T00:39:04;14.10;99.90
19781;DHT22;10050;55.492;13.506;2023-08-08T00:41:40;14.10;99.90
19781;DHT22;10050;55.492;13.506;2023-08-08T00:44:06;14.00;99.90
19781;DHT22;10050;55.492;13.506;2023-08-08T00:46:32;14.10;99.90
19781;DHT22;10050;55.492;13.506;2023-08-08T00:48:57;14.00;99.90
19781;DHT22;10050;55.492;13.506;2023-08-08T00:51:24;14.00;99.90
19781;DHT22;10050;55.492;13.506;2023-08-08T00:53:51;14.10;99.90
19781;DHT22;10050;55.492;13.506;2023-08-08T00:56:23;14.00;99.90
19781;DHT22;10050;55.492;13.506;2023-08-08T00:58:49;14.00;99.90
19781;DHT22;10050;55.492;13.506;2023-08-08T01:01:17;14.00;99.90
19781;DHT22;10050;55.492;13.506;2023-08-08T01:03:44;14.00;99.90
19781;DHT22;10050;55.492;13.506;2023-08-08T01:06:16;14.00;99.90
19781;DHT22;10050;55.492;13.506;2023-08-08T01:08:51;14.00;99.90
19781;DHT22;10050;55.492;13.506;2023-08-08T01:11:19;14.00;99.90
19781;DHT22;10050;55.492;13.506;2023-08-08T01:17:27;14.00;99.90
19781;DHT22;10050;55.492;13.506;2023-08-08T01:19:54;13.90;99.90
19781;DHT22;10050;55.492;13.506;2023-08-08T01:25:23;13.90;99.90
19781;DHT22;10050;55.492;13.506;2023-08-08T01:27:51;13.90;99.90
19781;DHT22;10050;55.492;13.506;2023-08-08T01:30:24;13.90;99.90
19781;DHT22;10050;55.492;13.506;2023-08-08T01:32:49;13.90;99.90
19781;DHT22;10050;55.492;13.506;2023-08-08T01:35:15;13.90;99.90
19781;DHT22;10050;55.492;13.506;2023-08-08T01:37:50;13.90;99.90
19781;DHT22;10050;55.492;13.506;2023-08-08T01:40:17;13.90;99.90
19781;DHT22;10050;55.492;13.506;2023-08-08T01:42:55;13.90;99.90
19781;DHT22;10050;55.492;13.506;2023-08-08T01:45:21;13.90;99.90
19781;DHT22;10050;55.492;13.506;2023-08-08T01:47:50;13.90;99.90
19781;DHT22;10050;55.492;13.506;2023-08-08T01:50:16;13.90;99.90
19781;DHT22;10050;55.492;13.506;2023-08-08T01:52:42;13.90;99.90
19781;DHT22;10050;55.492;13.506;2023-08-08T01:55:08;13.90;99.90
19781;DHT22;10050;55.492;13.506;2023-08-08T01:57:33;13.90;99.90
19781;DHT22;10050;55.492;13.506;2023-08-08T01:59:59;13.90;99.90
19781;DHT22;10050;55.492;13.506;2023-08-08T02:02:25;13.90;99.90
19781;DHT22;10050;55.492;13.506;2023-08-08T02:04:51;13.90;99.90
19781;DHT22;10050;55.492;13.506;2023-08-08T02:07:16;13.90;99.90
19781;DHT22;10050;55.492;13.506;2023-08-08T02:09:42;13.80;99.90
19781;DHT22;10050;55.492;13.506;2023-08-08T02:12:08;13.80;99.90
19781;DHT22;10050;55.492;13.506;2023-08-08T02:14:34;13.70;99.90
19781;DHT22;10050;55.492;13.506;2023-08-08T02:16:59;13.70;99.90
19781;DHT22;10050;55.492;13.506;2023-08-08T02:19:25;13.60;99.90
19781;DHT22;10050;55.492;13.506;2023-08-08T02:21:51;13.60;99.90
19781;DHT22;10050;55.492;13.506;2023-08-08T02:24:16;13.60;99.90
19781;DHT22;10050;55.492;13.506;2023-08-08T02:26:42;13.60;99.90
19781;DHT22;10050;55.492;13.506;2023-08-08T02:29:08;13.60;99.90
19781;DHT22;10050;55.492;13.506;2023-08-08T02:31:49;13.60;99.90
19781;DHT22;10050;55.492;13.506;2023-08-08T02:35:11;13.60;99.90
19781;DHT22;10050;55.492;13.506;2023-08-08T02:37:56;13.60;99.90
19781;DHT22;10050;55.492;13.506;2023-08-08T02:40:22;13.60;99.90
19781;DHT22;10050;55.492;13.506;2023-08-08T02:42:52;13.60;99.90
19781;DHT22;10050;55.492;13.506;2023-08-08T02:45:17;13.60;99.90
19781;DHT22;10050;55.492;13.506;2023-08-08T02:47:43;13.60;99.90
19781;DHT22;10050;55.492;13.506;2023-08-08T02:50:09;13.70;99.90
19781;DHT22;10050;55.492;13.506;2023-08-08T02:52:37;13.60;99.90
19781;DHT22;10050;55.492;13.506;2023-08-08T02:55:03;13.60;99.90
19781;DHT22;10050;55.492;13.506;2023-08-08T02:57:31;13.50;99.90
19781;DHT22;10050;55.492;13.506;2023-08-08T02:59:57;13.60;99.90
19781;DHT22;10050;55.492;13.506;2023-08-08T03:02:22;13.50;99.90
19781;DHT22;10050;55.492;13.506;2023-08-08T03:04:48;13.60;99.90
19781;DHT22;10050;55.492;13.506;2023-08-08T03:07:13;13.60;99.90
19781;DHT22;10050;55.492;13.506;2023-08-08T03:09:39;13.60;99.90
19781;DHT22;10050;55.492;13.506;2023-08-08T03:12:05;13.60;99.90
19781;DHT22;10050;55.492;13.506;2023-08-08T03:14:31;13.60;99.90
19781;DHT22;10050;55.492;13.506;2023-08-08T03:16:57;13.40;99.90
19781;DHT22;10050;55.492;13.506;2023-08-08T03:19:22;13.40;99.90
19781;DHT22;10050;55.492;13.506;2023-08-08T03:21:48;13.40;99.90
19781;DHT22;10050;55.492;13.506;2023-08-08T03:24:13;13.40;99.90
19781;DHT22;10050;55.492;13.506;2023-08-08T03:26:39;13.40;99.90
19781;DHT22;10050;55.492;13.506;2023-08-08T03:29:05;13.40;99.90
19781;DHT22;10050;55.492;13.506;2023-08-08T03:31:30;13.40;99.90
19781;DHT22;10050;55.492;13.506;2023-08-08T03:33:56;13.40;99.90
19781;DHT22;10050;55.492;13.506;2023-08-08T03:36:21;13.40;99.90
19781;DHT22;10050;55.492;13.506;2023-08-08T03:38:48;13.40;99.90
19781;DHT22;10050;55.492;13.506;2023-08-08T03:41:14;13.40;99.90
19781;DHT22;10050;55.492;13.506;2023-08-08T03:43:40;13.40;99.90
19781;DHT22;10050;55.492;13.506;2023-08-08T03:46:05;13.40;99.90
19781;DHT22;10050;55.492;13.506;2023-08-08T03:48:31;13.30;99.90
19781;DHT22;10050;55.492;13.506;2023-08-08T03:51:00;13.40;99.90
19781;DHT22;10050;55.492;13.506;2023-08-08T03:53:25;13.40;99.90
19781;DHT22;10050;55.492;13.506;2023-08-08T03:55:54;13.40;99.90
19781;DHT22;10050;55.492;13.506;2023-08-08T03:58:31;13.50;99.90
19781;DHT22;10050;55.492;13.506;2023-08-08T04:01:00;13.50;99.90
19781;DHT22;10050;55.492;13.506;2023-08-08T04:03:32;13.50;99.90
19781;DHT22;10050;55.492;13.506;2023-08-08T04:06:09;13.50;99.90
19781;DHT22;10050;55.492;13.506;2023-08-08T04:12:25;13.50;99.90
19781;DHT22;10050;55.492;13.506;2023-08-08T04:15:01;13.50;99.90
19781;DHT22;10050;55.492;13.506;2023-08-08T04:17:27;13.50;99.90
19781;DHT22;10050;55.492;13.506;2023-08-08T04:19:53;13.50;99.90
19781;DHT22;10050;55.492;13.506;2023-08-08T04:22:19;13.50;99.90
19781;DHT22;10050;55.492;13.506;2023-08-08T04:25:18;13.50;99.90
19781;DHT22;10050;55.492;13.506;2023-08-08T04:31:38;13.50;99.90
19781;DHT22;10050;55.492;13.506;2023-08-08T04:34:04;13.40;99.90
19781;DHT22;10050;55.492;13.506;2023-08-08T04:36:30;13.40;99.90
19781;DHT22;10050;55.492;13.506;2023-08-08T04:38:56;13.40;99.90
19781;DHT22;10050;55.492;13.506;2023-08-08T04:41:21;13.50;99.90
19781;DHT22;10050;55.492;13.506;2023-08-08T04:43:47;13.50;99.90
19781;DHT22;10050;55.492;13.506;2023-08-08T04:46:13;13.50;99.90
19781;DHT22;10050;55.492;13.506;2023-08-08T04:48:39;13.50;99.90
19781;DHT22;10050;55.492;13.506;2023-08-08T04:51:05;13.50;99.90
19781;DHT22;10050;55.492;13.506;2023-08-08T04:53:31;13.50;99.90
19781;DHT22;10050;55.492;13.506;2023-08-08T04:55:57;13.50;99.90
19781;DHT22;10050;55.492;13.506;2023-08-08T04:58:23;13.50;99.90
19781;DHT22;10050;55.492;13.506;2023-08-08T05:04:14;13.50;99.90
19781;DHT22;10050;55.492;13.506;2023-08-08T05:07:18;13.50;99.90
19781;DHT22;10050;55.492;13.506;2023-08-08T05:09:44;13.50;99.90
19781;DHT22;10050;55.492;13.506;2023-08-08T05:12:10;13.60;99.90
19781;DHT22;10050;55.492;13.506;2023-08-08T05:14:36;13.50;99.90
19781;DHT22;10050;55.492;13.506;2023-08-08T05:17:05;13.50;99.90
19781;DHT22;10050;55.492;13.506;2023-08-08T05:19:31;13.50;99.90
19781;DHT22;10050;55.492;13.506;2023-08-08T05:21:57;13.60;99.90
19781;DHT22;10050;55.492;13.506;2023-08-08T05:24:22;13.60;99.90
19781;DHT22;10050;55.492;13.506;2023-08-08T05:26:51;13.60;99.90
19781;DHT22;10050;55.492;13.506;2023-08-08T05:29:22;13.60;99.90
19781;DHT22;10050;55.492;13.506;2023-08-08T05:31:56;13.60;99.90
19781;DHT22;10050;55.492;13.506;2023-08-08T05:34:25;13.60;99.90
19781;DHT22;10050;55.492;13.506;2023-08-08T05:36:58;13.70;99.90
19781;DHT22;10050;55.492;13.506;2023-08-08T05:39:29;13.70;99.90
19781;DHT22;10050;55.492;13.506;2023-08-08T05:42:39;13.70;99.90
19781;DHT22;10050;55.492;13.506;2023-08-08T05:45:08;13.70;99.90
19781;DHT22;10050;55.492;13.506;2023-08-08T05:47:47;13.70;99.90
19781;DHT22;10050;55.492;13.506;2023-08-08T05:50:15;13.70;99.90
19781;DHT22;10050;55.492;13.506;2023-08-08T05:52:42;13.70;99.90
19781;DHT22;10050;55.492;13.506;2023-08-08T05:55:08;13.70;99.90
19781;DHT22;10050;55.492;13.506;2023-08-08T05:57:37;13.70;99.90
19781;DHT22;10050;55.492;13.506;2023-08-08T06:00:05;13.70;99.90
19781;DHT22;10050;55.492;13.506;2023-08-08T06:02:37;13.70;99.90
19781;DHT22;10050;55.492;13.506;2023-08-08T06:05:13;13.70;99.90
19781;DHT22;10050;55.492;13.506;2023-08-08T06:08:08;13.70;99.90
19781;DHT22;10050;55.492;13.506;2023-08-08T06:10:52;13.70;99.90
19781;DHT22;10050;55.492;13.506;2023-08-08T06:13:17;13.70;99.90
19781;DHT22;10050;55.492;13.506;2023-08-08T06:18:56;13.80;99.90
19781;DHT22;10050;55.492;13.506;2023-08-08T06:21:49;13.70;99.90
19781;DHT22;10050;55.492;13.506;2023-08-08T06:24:21;13.70;99.90
19781;DHT22;10050;55.492;13.506;2023-08-08T06:26:52;13.80;99.90
19781;DHT22;10050;55.492;13.506;2023-08-08T06:29:24;13.80;99.90
19781;DHT22;10050;55.492;13.506;2023-08-08T06:32:16;13.80;99.90
19781;DHT22;10050;55.492;13.506;2023-08-08T06:34:42;13.80;99.90
19781;DHT22;10050;55.492;13.506;2023-08-08T06:37:09;13.80;99.90
19781;DHT22;10050;55.492;13.506;2023-08-08T06:39:36;13.80;99.90
19781;DHT22;10050;55.492;13.506;2023-08-08T06:45:29;13.90;99.90
19781;DHT22;10050;55.492;13.506;2023-08-08T06:51:39;14.10;99.90
19781;DHT22;10050;55.492;13.506;2023-08-08T06:54:14;14.10;99.90
19781;DHT22;10050;55.492;13.506;2023-08-08T06:56:58;14.10;99.90
19781;DHT22;10050;55.492;13.506;2023-08-08T06:59:52;14.10;99.90
19781;DHT22;10050;55.492;13.506;2023-08-08T07:02:44;14.10;99.90
19781;DHT22;10050;55.492;13.506;2023-08-08T07:08:19;14.20;99.90
19781;DHT22;10050;55.492;13.506;2023-08-08T07:11:00;14.20;99.90
19781;DHT22;10050;55.492;13.506;2023-08-08T07:17:05;14.10;99.90
19781;DHT22;10050;55.492;13.506;2023-08-08T07:19:38;14.00;99.90
19781;DHT22;10050;55.492;13.506;2023-08-08T07:22:19;14.10;99.90
19781;DHT22;10050;55.492;13.506;2023-08-08T07:27:53;14.10;99.90
19781;DHT22;10050;55.492;13.506;2023-08-08T07:30:23;14.10;99.90
19781;DHT22;10050;55.492;13.506;2023-08-08T07:32:51;14.20;99.90
19781;DHT22;10050;55.492;13.506;2023-08-08T07:35:17;14.20;99.90
19781;DHT22;10050;55.492;13.506;2023-08-08T07:37:45;14.20;99.90
19781;DHT22;10050;55.492;13.506;2023-08-08T07:40:16;14.20;99.90
19781;DHT22;10050;55.492;13.506;2023-08-08T07:43:11;14.30;99.90
19781;DHT22;10050;55.492;13.506;2023-08-08T07:45:41;14.30;99.90
19781;DHT22;10050;55.492;13.506;2023-08-08T07:48:07;14.30;99.90
19781;DHT22;10050;55.492;13.506;2023-08-08T07:50:38;14.40;99.90
19781;DHT22;10050;55.492;13.506;2023-08-08T07:53:18;14.40;99.90
19781;DHT22;10050;55.492;13.506;2023-08-08T07:58:58;14.60;99.90
19781;DHT22;10050;55.492;13.506;2023-08-08T08:01:46;14.70;99.90
19781;DHT22;10050;55.492;13.506;2023-08-08T08:04:42;14.70;99.90
19781;DHT22;10050;55.492;13.506;2023-08-08T08:07:09;14.80;99.90
19781;DHT22;10050;55.492;13.506;2023-08-08T08:09:35;14.80;99.90
19781;DHT22;10050;55.492;13.506;2023-08-08T08:12:23;14.80;99.90
19781;DHT22;10050;55.492;13.506;2023-08-08T08:14:50;14.80;99.90
19781;DHT22;10050;55.492;13.506;2023-08-08T08:17:16;14.90;99.90
19781;DHT22;10050;55.492;13.506;2023-08-08T08:19:41;14.90;99.90
19781;DHT22;10050;55.492;13.506;2023-08-08T08:22:08;15.10;99.90
19781;DHT22;10050;55.492;13.506;2023-08-08T08:24:36;15.10;99.90
19781;DHT22;10050;55.492;13.506;2023-08-08T08:27:05;15.20;99.90
19781;DHT22;10050;55.492;13.506;2023-08-08T08:29:56;15.30;99.90
19781;DHT22;10050;55.492;13.506;2023-08-08T08:32:22;15.30;99.90
19781;DHT22;10050;55.492;13.506;2023-08-08T08:35:13;15.20;99.90
19781;DHT22;10050;55.492;13.506;2023-08-08T08:37:42;15.20;99.90
19781;DHT22;10050;55.492;13.506;2023-08-08T08:40:10;15.10;99.90
19781;DHT22;10050;55.492;13.506;2023-08-08T08:42:41;15.00;99.90
19781;DHT22;10050;55.492;13.506;2023-08-08T08:45:22;15.10;99.90
19781;DHT22;10050;55.492;13.506;2023-08-08T08:47:49;15.20;99.90
19781;DHT22;10050;55.492;13.506;2023-08-08T08:50:24;15.30;99.90
19781;DHT22;10050;55.492;13.506;2023-08-08T08:52:53;15.40;99.90
19781;DHT22;10050;55.492;13.506;2023-08-08T08:55:29;15.40;99.90
19781;DHT22;10050;55.492;13.506;2023-08-08T08:57:55;15.40;99.90
19781;DHT22;10050;55.492;13.506;2023-08-08T09:00:26;15.50;99.90
19781;DHT22;10050;55.492;13.506;2023-08-08T09:02:52;15.60;99.90
19781;DHT22;10050;55.492;13.506;2023-08-08T09:05:20;15.60;99.90
19781;DHT22;10050;55.492;13.506;2023-08-08T09:07:52;15.60;99.90
19781;DHT22;10050;55.492;13.506;2023-08-08T09:10:19;15.60;99.90
19781;DHT22;10050;55.492;13.506;2023-08-08T09:12:45;15.60;99.90
19781;DHT22;10050;55.492;13.506;2023-08-08T09:15:12;15.70;99.90
19781;DHT22;10050;55.492;13.506;2023-08-08T09:17:42;15.90;99.90
19781;DHT22;10050;55.492;13.506;2023-08-08T09:20:13;16.10;99.90
19781;DHT22;10050;55.492;13.506;2023-08-08T09:22:39;16.50;99.90
19781;DHT22;10050;55.492;13.506;2023-08-08T09:25:06;16.90;99.90
19781;DHT22;10050;55.492;13.506;2023-08-08T09:27:32;17.20;99.90
19781;DHT22;10050;55.492;13.506;2023-08-08T09:29:58;17.50;99.90
19781;DHT22;10050;55.492;13.506;2023-08-08T09:32:29;17.70;99.90
19781;DHT22;10050;55.492;13.506;2023-08-08T09:34:58;18.00;99.90
19781;DHT22;10050;55.492;13.506;2023-08-08T09:37:26;18.30;99.90
19781;DHT22;10050;55.492;13.506;2023-08-08T09:40:02;18.50;99.90
19781;DHT22;10050;55.492;13.506;2023-08-08T09:42:29;18.80;99.90
19781;DHT22;10050;55.492;13.506;2023-08-08T09:44:59;18.80;99.90
19781;DHT22;10050;55.492;13.506;2023-08-08T09:47:25;18.60;99.90
19781;DHT22;10050;55.492;13.506;2023-08-08T09:50:00;18.50;99.90
19781;DHT22;10050;55.492;13.506;2023-08-08T09:52:29;18.50;99.90
19781;DHT22;10050;55.492;13.506;2023-08-08T09:54:55;18.70;99.90
19781;DHT22;10050;55.492;13.506;2023-08-08T09:57:25;19.50;99.90
19781;DHT22;10050;55.492;13.506;2023-08-08T09:59:52;20.20;99.90
19781;DHT22;10050;55.492;13.506;2023-08-08T10:02:18;20.20;99.90
19781;DHT22;10050;55.492;13.506;2023-08-08T10:04:47;19.90;99.90
19781;DHT22;10050;55.492;13.506;2023-08-08T10:07:14;19.40;99.90
19781;DHT22;10050;55.492;13.506;2023-08-08T10:09:41;19.60;99.90
19781;DHT22;10050;55.492;13.506;2023-08-08T10:12:07;19.90;99.90
19781;DHT22;10050;55.492;13.506;2023-08-08T10:14:36;20.00;99.90
19781;DHT22;10050;55.492;13.506;2023-08-08T10:17:05;19.70;99.90
19781;DHT22;10050;55.492;13.506;2023-08-08T10:19:32;19.80;99.90
19781;DHT22;10050;55.492;13.506;2023-08-08T10:22:04;19.70;99.90
19781;DHT22;10050;55.492;13.506;2023-08-08T10:24:37;19.50;99.90
19781;DHT22;10050;55.492;13.506;2023-08-08T10:27:04;19.40;99.90
19781;DHT22;10050;55.492;13.506;2023-08-08T10:29:32;19.30;99.90
19781;DHT22;10050;55.492;13.506;2023-08-08T10:32:00;19.40;99.90
19781;DHT22;10050;55.492;13.506;2023-08-08T10:34:42;19.70;99.90
19781;DHT22;10050;55.492;13.506;2023-08-08T10:37:18;20.20;99.90
19781;DHT22;10050;55.492;13.506;2023-08-08T10:39:54;20.50;99.90
19781;DHT22;10050;55.492;13.506;2023-08-08T10:42:25;20.30;99.90
19781;DHT22;10050;55.492;13.506;2023-08-08T10:44:59;20.30;99.90
19781;DHT22;10050;55.492;13.506;2023-08-08T10:47:25;19.80;99.90
19781;DHT22;10050;55.492;13.506;2023-08-08T10:50:05;19.20;99.90
19781;DHT22;10050;55.492;13.506;2023-08-08T10:55:36;19.80;99.90
19781;DHT22;10050;55.492;13.506;2023-08-08T10:58:10;19.50;99.90
19781;DHT22;10050;55.492;13.506;2023-08-08T11:00:37;18.90;99.90
19781;DHT22;10050;55.492;13.506;2023-08-08T11:03:05;18.60;99.90
19781;DHT22;10050;55.492;13.506;2023-08-08T11:05:32;18.40;99.90
19781;DHT22;10050;55.492;13.506;2023-08-08T11:08:00;18.40;99.90
19781;DHT22;10050;55.492;13.506;2023-08-08T11:10:26;18.40;99.90
19781;DHT22;10050;55.492;13.506;2023-08-08T11:13:00;18.30;99.90
19781;DHT22;10050;55.492;13.506;2023-08-08T11:15:26;18.60;99.90
19781;DHT22;10050;55.492;13.506;2023-08-08T11:17:54;18.80;99.90
19781;DHT22;10050;55.492;13.506;2023-08-08T11:20:21;18.80;99.90
19781;DHT22;10050;55.492;13.506;2023-08-08T11:22:51;19.00;99.90
19781;DHT22;10050;55.492;13.506;2023-08-08T11:25:17;19.00;99.90
19781;DHT22;10050;55.492;13.506;2023-08-08T11:27:54;19.00;99.90
19781;DHT22;10050;55.492;13.506;2023-08-08T11:30:21;19.00;99.90
19781;DHT22;10050;55.492;13.506;2023-08-08T11:32:50;18.70;99.90
19781;DHT22;10050;55.492;13.506;2023-08-08T11:35:22;18.50;99.90
19781;DHT22;10050;55.492;13.506;2023-08-08T11:37:48;18.70;99.90
19781;DHT22;10050;55.492;13.506;2023-08-08T11:40:15;18.60;99.90
19781;DHT22;10050;55.492;13.506;2023-08-08T11:42:41;18.60;99.90
19781;DHT22;10050;55.492;13.506;2023-08-08T11:45:14;18.70;99.90
19781;DHT22;10050;55.492;13.506;2023-08-08T11:47:40;18.80;99.90
19781;DHT22;10050;55.492;13.506;2023-08-08T11:50:07;18.80;99.90
19781;DHT22;10050;55.492;13.506;2023-08-08T11:52:40;18.80;99.90
19781;DHT22;10050;55.492;13.506;2023-08-08T11:55:07;19.10;99.90
19781;DHT22;10050;55.492;13.506;2023-08-08T11:57:35;19.10;99.90
19781;DHT22;10050;55.492;13.506;2023-08-08T12:00:04;19.10;99.90
19781;DHT22;10050;55.492;13.506;2023-08-08T12:02:32;19.30;99.90
19781;DHT22;10050;55.492;13.506;2023-08-08T12:05:07;19.50;99.90
19781;DHT22;10050;55.492;13.506;2023-08-08T12:07:33;19.60;99.90
19781;DHT22;10050;55.492;13.506;2023-08-08T12:10:05;19.70;99.90
19781;DHT22;10050;55.492;13.506;2023-08-08T12:12:32;19.40;99.90
19781;DHT22;10050;55.492;13.506;2023-08-08T12:15:10;19.00;99.90
19781;DHT22;10050;55.492;13.506;2023-08-08T12:17:39;18.80;99.90
19781;DHT22;10050;55.492;13.506;2023-08-08T12:20:07;18.80;99.90
19781;DHT22;10050;55.492;13.506;2023-08-08T12:22:33;18.80;99.90
19781;DHT22;10050;55.492;13.506;2023-08-08T12:24:59;18.70;99.90
19781;DHT22;10050;55.492;13.506;2023-08-08T12:27:24;18.70;99.90
19781;DHT22;10050;55.492;13.506;2023-08-08T12:29:50;18.60;99.90
19781;DHT22;10050;55.492;13.506;2023-08-08T12:32:21;18.50;99.90
19781;DHT22;10050;55.492;13.506;2023-08-08T12:34:49;18.80;99.90
19781;DHT22;10050;55.492;13.506;2023-08-08T12:37:15;18.90;99.90
19781;DHT22;10050;55.492;13.506;2023-08-08T12:39:40;18.90;99.90
19781;DHT22;10050;55.492;13.506;2023-08-08T12:42:06;19.10;99.90
19781;DHT22;10050;55.492;13.506;2023-08-08T12:44:32;19.50;99.90
19781;DHT22;10050;55.492;13.506;2023-08-08T12:46:57;19.30;99.90
19781;DHT22;10050;55.492;13.506;2023-08-08T12:49:23;19.40;99.90
19781;DHT22;10050;55.492;13.506;2023-08-08T12:51:50;19.50;99.90
19781;DHT22;10050;55.492;13.506;2023-08-08T12:54:16;19.80;99.90
19781;DHT22;10050;55.492;13.506;2023-08-08T12:56:41;20.00;99.90
19781;DHT22;10050;55.492;13.506;2023-08-08T12:59:08;19.70;99.90
19781;DHT22;10050;55.492;13.506;2023-08-08T13:01:34;19.20;99.90
19781;DHT22;10050;55.492;13.506;2023-08-08T13:03:59;18.90;99.90
19781;DHT22;10050;55.492;13.506;2023-08-08T13:06:25;18.80;99.90
19781;DHT22;10050;55.492;13.506;2023-08-08T13:08:51;18.90;99.90
19781;DHT22;10050;55.492;13.506;2023-08-08T13:11:16;19.30;99.90
19781;DHT22;10050;55.492;13.506;2023-08-08T13:13:42;19.80;99.90
19781;DHT22;10050;55.492;13.506;2023-08-08T13:16:07;20.40;99.90
19781;DHT22;10050;55.492;13.506;2023-08-08T13:18:33;20.50;99.90
19781;DHT22;10050;55.492;13.506;2023-08-08T13:20:58;20.20;99.90
19781;DHT22;10050;55.492;13.506;2023-08-08T13:23:24;20.00;99.90
19781;DHT22;10050;55.492;13.506;2023-08-08T13:25:50;20.30;99.90
19781;DHT22;10050;55.492;13.506;2023-08-08T13:28:16;20.20;99.90
19781;DHT22;10050;55.492;13.506;2023-08-08T13:30:42;20.30;99.90
19781;DHT22;10050;55.492;13.506;2023-08-08T13:33:08;19.90;99.90
19781;DHT22;10050;55.492;13.506;2023-08-08T13:35:34;19.80;99.90
19781;DHT22;10050;55.492;13.506;2023-08-08T13:38:02;19.50;99.90
19781;DHT22;10050;55.492;13.506;2023-08-08T13:40:28;19.50;99.90
19781;DHT22;10050;55.492;13.506;2023-08-08T13:42:54;19.70;99.90
19781;DHT22;10050;55.492;13.506;2023-08-08T13:45:20;20.00;99.90
19781;DHT22;10050;55.492;13.506;2023-08-08T13:47:47;20.00;99.90
19781;DHT22;10050;55.492;13.506;2023-08-08T13:50:16;20.00;99.90
19781;DHT22;10050;55.492;13.506;2023-08-08T13:52:41;20.10;99.90
19781;DHT22;10050;55.492;13.506;2023-08-08T13:55:08;20.00;99.90
19781;DHT22;10050;55.492;13.506;2023-08-08T13:57:34;19.80;99.90
19781;DHT22;10050;55.492;13.506;2023-08-08T14:00:00;19.70;99.90
19781;DHT22;10050;55.492;13.506;2023-08-08T14:02:26;19.70;99.90
19781;DHT22;10050;55.492;13.506;2023-08-08T14:04:52;19.90;99.90
19781;DHT22;10050;55.492;13.506;2023-08-08T14:07:18;19.80;99.90
19781;DHT22;10050;55.492;13.506;2023-08-08T14:09:44;19.70;99.90
19781;DHT22;10050;55.492;13.506;2023-08-08T14:12:10;19.70;99.90
19781;DHT22;10050;55.492;13.506;2023-08-08T14:14:35;19.80;99.90
19781;DHT22;10050;55.492;13.506;2023-08-08T14:17:01;19.80;99.90
19781;DHT22;10050;55.492;13.506;2023-08-08T14:19:27;19.60;99.90
19781;DHT22;10050;55.492;13.506;2023-08-08T14:21:52;19.60;99.90
19781;DHT22;10050;55.492;13.506;2023-08-08T14:24:18;19.60;99.90
19781;DHT22;10050;55.492;13.506;2023-08-08T14:26:44;19.80;99.90
19781;DHT22;10050;55.492;13.506;2023-08-08T14:29:11;19.70;99.90
19781;DHT22;10050;55.492;13.506;2023-08-08T14:31:44;19.80;99.90
19781;DHT22;10050;55.492;13.506;2023-08-08T14:34:10;19.90;99.90
19781;DHT22;10050;55.492;13.506;2023-08-08T14:36:35;19.60;99.90
19781;DHT22;10050;55.492;13.506;2023-08-08T14:39:01;19.50;99.90
19781;DHT22;10050;55.492;13.506;2023-08-08T14:41:27;19.40;99.90
19781;DHT22;10050;55.492;13.506;2023-08-08T14:43:52;19.10;99.90
19781;DHT22;10050;55.492;13.506;2023-08-08T14:46:18;18.90;99.90
19781;DHT22;10050;55.492;13.506;2023-08-08T14:48:44;19.10;99.90
19781;DHT22;10050;55.492;13.506;2023-08-08T14:51:09;19.00;99.90
19781;DHT22;10050;55.492;13.506;2023-08-08T14:53:35;18.80;99.90
19781;DHT22;10050;55.492;13.506;2023-08-08T14:56:01;18.70;99.90
19781;DHT22;10050;55.492;13.506;2023-08-08T14:58:26;18.70;99.90
19781;DHT22;10050;55.492;13.506;2023-08-08T15:00:55;18.90;99.90
19781;DHT22;10050;55.492;13.506;2023-08-08T15:03:21;18.70;99.90
19781;DHT22;10050;55.492;13.506;2023-08-08T15:05:46;18.80;99.90
19781;DHT22;10050;55.492;13.506;2023-08-08T15:08:14;18.90;99.90
19781;DHT22;10050;55.492;13.506;2023-08-08T15:10:42;18.80;99.90
19781;DHT22;10050;55.492;13.506;2023-08-08T15:13:08;18.60;99.90
19781;DHT22;10050;55.492;13.506;2023-08-08T15:15:33;18.50;99.90
19781;DHT22;10050;55.492;13.506;2023-08-08T15:17:59;18.40;99.90
19781;DHT22;10050;55.492;13.506;2023-08-08T15:20:25;18.20;99.90
19781;DHT22;10050;55.492;13.506;2023-08-08T15:22:50;18.10;99.90
19781;DHT22;10050;55.492;13.506;2023-08-08T15:25:16;18.00;99.90
19781;DHT22;10050;55.492;13.506;2023-08-08T15:27:41;17.80;99.90
19781;DHT22;10050;55.492;13.506;2023-08-08T15:30:08;17.80;99.90
19781;DHT22;10050;55.492;13.506;2023-08-08T15:32:33;17.90;99.90
19781;DHT22;10050;55.492;13.506;2023-08-08T15:34:59;18.00;99.90
19781;DHT22;10050;55.492;13.506;2023-08-08T15:37:27;18.20;99.90
19781;DHT22;10050;55.492;13.506;2023-08-08T15:39:53;18.20;99.90
19781;DHT22;10050;55.492;13.506;2023-08-08T15:42:19;18.00;99.90
19781;DHT22;10050;55.492;13.506;2023-08-08T15:44:44;18.00;99.90
19781;DHT22;10050;55.492;13.506;2023-08-08T15:47:10;17.90;99.90
19781;DHT22;10050;55.492;13.506;2023-08-08T15:49:35;18.00;99.90
19781;DHT22;10050;55.492;13.506;2023-08-08T15:52:02;18.00;99.90
19781;DHT22;10050;55.492;13.506;2023-08-08T15:54:28;18.00;99.90
19781;DHT22;10050;55.492;13.506;2023-08-08T15:56:54;17.90;99.90
19781;DHT22;10050;55.492;13.506;2023-08-08T15:59:20;18.00;99.90
19781;DHT22;10050;55.492;13.506;2023-08-08T16:01:46;18.10;99.90
19781;DHT22;10050;55.492;13.506;2023-08-08T16:04:12;18.00;99.90
19781;DHT22;10050;55.492;13.506;2023-08-08T16:06:40;17.90;99.90
19781;DHT22;10050;55.492;13.506;2023-08-08T16:09:06;17.80;99.90
19781;DHT22;10050;55.492;13.506;2023-08-08T16:11:31;17.80;99.90